sensor_id;sensor_type;location;lat;lon;timestamp;P1;durP1;ratioP1;P2;durP2;ratioP2
20988;SDS011;10653;47.052;15.410;2022-10-22T00:02:15;22.17;;;18.40;;
20988;SDS011;10653;47.052;15.410;2022-10-22T00:04:45;19.77;;;17.70;;
20988;SDS011;10653;47.052;15.410;2022-10-22T00:07:11;20.00;;;17.60;;
20988;SDS011;10653;47.052;15.410;2022-10-22T00:09:37;20.07;;;17.70;;
20988;SDS011;10653;47.052;15.410;2022-10-22T00:12:03;20.13;;;17.97;;
20988;SDS011;10653;47.052;15.410;2022-10-22T00:14:29;21.10;;;17.03;;
20988;SDS011;10653;47.052;15.410;2022-10-22T00:16:55;20.77;;;17.47;;
20988;SDS011;10653;47.052;15.410;2022-10-22T00:19:24;24.13;;;18.10;;
20988;SDS011;10653;47.052;15.410;2022-10-22T00:21:51;18.43;;;16.10;;
20988;SDS011;10653;47.052;15.410;2022-10-22T00:24:17;20.00;;;16.70;;
20988;SDS011;10653;47.052;15.410;2022-10-22T00:26:43;18.00;;;16.20;;
20988;SDS011;10653;47.052;15.410;2022-10-22T00:29:09;22.40;;;17.10;;
20988;SDS011;10653;47.052;15.410;2022-10-22T00:31:35;22.50;;;18.83;;
20988;SDS011;10653;47.052;15.410;2022-10-22T00:34:01;18.87;;;16.93;;
20988;SDS011;10653;47.052;15.410;2022-10-22T00:36:27;20.57;;;16.10;;
20988;SDS011;10653;47.052;15.410;2022-10-22T00:38:53;22.87;;;16.93;;
20988;SDS011;10653;47.052;15.410;2022-10-22T00:41:19;21.93;;;17.00;;
20988;SDS011;10653;47.052;15.410;2022-10-22T00:43:59;17.80;;;15.90;;
20988;SDS011;10653;47.052;15.410;2022-10-22T00:46:25;19.90;;;14.97;;
20988;SDS011;10653;47.052;15.410;2022-10-22T00:48:51;21.50;;;16.90;;
20988;SDS011;10653;47.052;15.410;2022-10-22T00:51:17;18.67;;;16.67;;
20988;SDS011;10653;47.052;15.410;2022-10-22T00:53:46;22.27;;;16.30;;
20988;SDS011;10653;47.052;15.410;2022-10-22T00:56:14;18.83;;;16.70;;
20988;SDS011;10653;47.052;15.410;2022-10-22T00:58:41;20.70;;;16.33;;
20988;SDS011;10653;47.052;15.410;2022-10-22T01:01:09;19.20;;;15.93;;
20988;SDS011;10653;47.052;15.410;2022-10-22T01:03:38;17.43;;;15.50;;
20988;SDS011;10653;47.052;15.410;2022-10-22T01:06:04;18.27;;;15.20;;
20988;SDS011;10653;47.052;15.410;2022-10-22T01:11:10;19.97;;;17.40;;
20988;SDS011;10653;47.052;15.410;2022-10-22T01:21:42;20.20;;;16.40;;
20988;SDS011;10653;47.052;15.410;2022-10-22T01:24:21;18.57;;;16.60;;
20988;SDS011;10653;47.052;15.410;2022-10-22T01:29:20;16.83;;;15.07;;
20988;SDS011;10653;47.052;15.410;2022-10-22T01:31:50;18.27;;;16.40;;
20988;SDS011;10653;47.052;15.410;2022-10-22T01:34:17;18.80;;;16.90;;
20988;SDS011;10653;47.052;15.410;2022-10-22T01:36:44;18.00;;;16.10;;
20988;SDS011;10653;47.052;15.410;2022-10-22T01:39:11;18.67;;;16.67;;
20988;SDS011;10653;47.052;15.410;2022-10-22T01:41:40;21.40;;;16.00;;
20988;SDS011;10653;47.052;15.410;2022-10-22T01:44:25;21.87;;;16.60;;
20988;SDS011;10653;47.052;15.410;2022-10-22T01:46:53;19.93;;;16.57;;
20988;SDS011;10653;47.052;15.410;2022-10-22T01:49:23;20.77;;;17.37;;
20988;SDS011;10653;47.052;15.410;2022-10-22T01:52:09;20.17;;;15.53;;
20988;SDS011;10653;47.052;15.410;2022-10-22T02:00:16;20.53;;;16.27;;
20988;SDS011;10653;47.052;15.410;2022-10-22T02:05:27;19.53;;;16.20;;
20988;SDS011;10653;47.052;15.410;2022-10-22T02:08:00;18.60;;;16.60;;
20988;SDS011;10653;47.052;15.410;2022-10-22T02:10:27;16.90;;;15.07;;
20988;SDS011;10653;47.052;15.410;2022-10-22T02:12:54;18.27;;;16.10;;
20988;SDS011;10653;47.052;15.410;2022-10-22T02:15:22;19.30;;;15.53;;
20988;SDS011;10653;47.052;15.410;2022-10-22T02:17:49;18.43;;;16.50;;
20988;SDS011;10653;47.052;15.410;2022-10-22T02:20:17;17.97;;;15.23;;
20988;SDS011;10653;47.052;15.410;2022-10-22T02:22:44;18.93;;;15.27;;
20988;SDS011;10653;47.052;15.410;2022-10-22T02:25:10;23.43;;;15.77;;
20988;SDS011;10653;47.052;15.410;2022-10-22T02:27:43;17.40;;;15.33;;
20988;SDS011;10653;47.052;15.410;2022-10-22T02:30:14;19.13;;;16.57;;
20988;SDS011;10653;47.052;15.410;2022-10-22T02:35:08;20.90;;;16.07;;
20988;SDS011;10653;47.052;15.410;2022-10-22T02:37:35;20.03;;;15.60;;
20988;SDS011;10653;47.052;15.410;2022-10-22T02:40:02;18.03;;;16.03;;
20988;SDS011;10653;47.052;15.410;2022-10-22T02:42:28;18.67;;;15.07;;
20988;SDS011;10653;47.052;15.410;2022-10-22T02:44:54;18.57;;;16.37;;
20988;SDS011;10653;47.052;15.410;2022-10-22T02:47:20;20.17;;;17.30;;
20988;SDS011;10653;47.052;15.410;2022-10-22T02:49:46;17.30;;;14.47;;
20988;SDS011;10653;47.052;15.410;2022-10-22T02:52:12;22.20;;;15.97;;
20988;SDS011;10653;47.052;15.410;2022-10-22T02:54:38;18.73;;;16.23;;
20988;SDS011;10653;47.052;15.410;2022-10-22T02:57:04;18.87;;;16.97;;
20988;SDS011;10653;47.052;15.410;2022-10-22T02:59:30;18.33;;;16.40;;
20988;SDS011;10653;47.052;15.410;2022-10-22T03:01:56;18.33;;;15.97;;
20988;SDS011;10653;47.052;15.410;2022-10-22T03:04:22;17.10;;;15.30;;
20988;SDS011;10653;47.052;15.410;2022-10-22T03:06:48;20.00;;;15.67;;
20988;SDS011;10653;47.052;15.410;2022-10-22T03:09:15;19.97;;;15.20;;
20988;SDS011;10653;47.052;15.410;2022-10-22T03:11:41;17.90;;;15.10;;
20988;SDS011;10653;47.052;15.410;2022-10-22T03:14:07;19.33;;;14.67;;
20988;SDS011;10653;47.052;15.410;2022-10-22T03:16:33;18.03;;;15.30;;
20988;SDS011;10653;47.052;15.410;2022-10-22T03:18:59;15.53;;;13.93;;
20988;SDS011;10653;47.052;15.410;2022-10-22T03:21:31;19.70;;;15.77;;
20988;SDS011;10653;47.052;15.410;2022-10-22T03:24:00;19.13;;;14.83;;
20988;SDS011;10653;47.052;15.410;2022-10-22T03:26:27;22.93;;;14.87;;
20988;SDS011;10653;47.052;15.410;2022-10-22T03:28:53;18.17;;;13.20;;
20988;SDS011;10653;47.052;15.410;2022-10-22T03:31:19;16.37;;;14.40;;
20988;SDS011;10653;47.052;15.410;2022-10-22T03:33:45;14.90;;;13.30;;
20988;SDS011;10653;47.052;15.410;2022-10-22T03:36:11;17.00;;;13.97;;
20988;SDS011;10653;47.052;15.410;2022-10-22T03:38:37;15.73;;;14.13;;
20988;SDS011;10653;47.052;15.410;2022-10-22T03:41:04;16.17;;;14.07;;
20988;SDS011;10653;47.052;15.410;2022-10-22T03:43:32;15.20;;;13.17;;
20988;SDS011;10653;47.052;15.410;2022-10-22T03:45:58;17.83;;;14.97;;
20988;SDS011;10653;47.052;15.410;2022-10-22T03:48:24;15.03;;;13.00;;
20988;SDS011;10653;47.052;15.410;2022-10-22T03:50:50;16.33;;;13.83;;
20988;SDS011;10653;47.052;15.410;2022-10-22T03:53:16;16.97;;;15.17;;
20988;SDS011;10653;47.052;15.410;2022-10-22T03:55:42;19.00;;;15.87;;
20988;SDS011;10653;47.052;15.410;2022-10-22T03:58:08;18.30;;;16.20;;
20988;SDS011;10653;47.052;15.410;2022-10-22T04:00:35;16.03;;;14.23;;
20988;SDS011;10653;47.052;15.410;2022-10-22T04:03:01;17.53;;;14.70;;
20988;SDS011;10653;47.052;15.410;2022-10-22T04:05:27;17.40;;;15.60;;
20988;SDS011;10653;47.052;15.410;2022-10-22T04:07:53;16.20;;;14.50;;
20988;SDS011;10653;47.052;15.410;2022-10-22T04:10:19;19.27;;;14.43;;
20988;SDS011;10653;47.052;15.410;2022-10-22T04:12:48;17.70;;;14.40;;
20988;SDS011;10653;47.052;15.410;2022-10-22T04:15:14;16.60;;;14.03;;
20988;SDS011;10653;47.052;15.410;2022-10-22T04:17:40;16.27;;;13.93;;
20988;SDS011;10653;47.052;15.410;2022-10-22T04:20:06;19.10;;;13.83;;
20988;SDS011;10653;47.052;15.410;2022-10-22T04:22:33;20.90;;;15.40;;
20988;SDS011;10653;47.052;15.410;2022-10-22T04:24:59;16.63;;;13.03;;
20988;SDS011;10653;47.052;15.410;2022-10-22T04:27:28;19.30;;;14.50;;
20988;SDS011;10653;47.052;15.410;2022-10-22T04:29:53;15.80;;;14.00;;
20988;SDS011;10653;47.052;15.410;2022-10-22T04:32:19;17.10;;;14.37;;
20988;SDS011;10653;47.052;15.410;2022-10-22T04:34:45;18.90;;;14.73;;
20988;SDS011;10653;47.052;15.410;2022-10-22T04:37:11;15.53;;;13.50;;
20988;SDS011;10653;47.052;15.410;2022-10-22T04:39:37;15.43;;;13.83;;
20988;SDS011;10653;47.052;15.410;2022-10-22T04:42:04;18.00;;;13.87;;
20988;SDS011;10653;47.052;15.410;2022-10-22T04:44:30;18.37;;;14.50;;
20988;SDS011;10653;47.052;15.410;2022-10-22T04:46:56;16.17;;;14.43;;
20988;SDS011;10653;47.052;15.410;2022-10-22T04:49:22;14.20;;;12.70;;
20988;SDS011;10653;47.052;15.410;2022-10-22T04:51:48;17.80;;;15.10;;
20988;SDS011;10653;47.052;15.410;2022-10-22T04:54:14;16.03;;;14.23;;
20988;SDS011;10653;47.052;15.410;2022-10-22T04:56:40;16.27;;;13.93;;
20988;SDS011;10653;47.052;15.410;2022-10-22T04:59:08;15.60;;;13.77;;
20988;SDS011;10653;47.052;15.410;2022-10-22T05:01:40;16.30;;;13.50;;
20988;SDS011;10653;47.052;15.410;2022-10-22T05:04:07;15.20;;;13.57;;
20988;SDS011;10653;47.052;15.410;2022-10-22T05:06:34;20.20;;;18.10;;
20988;SDS011;10653;47.052;15.410;2022-10-22T05:09:02;21.70;;;19.20;;
20988;SDS011;10653;47.052;15.410;2022-10-22T05:11:34;22.13;;;18.77;;
20988;SDS011;10653;47.052;15.410;2022-10-22T05:14:00;20.17;;;17.23;;
20988;SDS011;10653;47.052;15.410;2022-10-22T05:16:27;20.70;;;16.50;;
20988;SDS011;10653;47.052;15.410;2022-10-22T05:18:54;21.93;;;18.70;;
20988;SDS011;10653;47.052;15.410;2022-10-22T05:21:20;17.73;;;16.00;;
20988;SDS011;10653;47.052;15.410;2022-10-22T05:23:47;19.47;;;15.90;;
20988;SDS011;10653;47.052;15.410;2022-10-22T05:26:15;19.17;;;15.23;;
20988;SDS011;10653;47.052;15.410;2022-10-22T05:28:41;17.73;;;15.87;;
20988;SDS011;10653;47.052;15.410;2022-10-22T05:31:09;18.03;;;15.03;;
20988;SDS011;10653;47.052;15.410;2022-10-22T05:33:36;17.93;;;15.73;;
20988;SDS011;10653;47.052;15.410;2022-10-22T05:36:02;17.00;;;14.63;;
20988;SDS011;10653;47.052;15.410;2022-10-22T05:38:28;16.40;;;14.33;;
20988;SDS011;10653;47.052;15.410;2022-10-22T05:40:58;24.70;;;20.03;;
20988;SDS011;10653;47.052;15.410;2022-10-22T05:43:24;21.23;;;18.43;;
20988;SDS011;10653;47.052;15.410;2022-10-22T05:45:50;19.53;;;17.53;;
20988;SDS011;10653;47.052;15.410;2022-10-22T05:48:16;16.73;;;14.57;;
20988;SDS011;10653;47.052;15.410;2022-10-22T05:50:42;17.87;;;16.10;;
20988;SDS011;10653;47.052;15.410;2022-10-22T05:53:10;20.10;;;18.00;;
20988;SDS011;10653;47.052;15.410;2022-10-22T05:55:36;19.87;;;17.33;;
20988;SDS011;10653;47.052;15.410;2022-10-22T05:58:04;21.43;;;19.13;;
20988;SDS011;10653;47.052;15.410;2022-10-22T06:00:31;21.27;;;17.40;;
20988;SDS011;10653;47.052;15.410;2022-10-22T06:02:58;21.10;;;17.07;;
20988;SDS011;10653;47.052;15.410;2022-10-22T06:05:24;17.80;;;15.80;;
20988;SDS011;10653;47.052;15.410;2022-10-22T06:07:50;21.60;;;15.53;;
20988;SDS011;10653;47.052;15.410;2022-10-22T06:10:17;18.17;;;13.93;;
20988;SDS011;10653;47.052;15.410;2022-10-22T06:12:45;21.37;;;16.67;;
20988;SDS011;10653;47.052;15.410;2022-10-22T06:15:12;15.37;;;13.77;;
20988;SDS011;10653;47.052;15.410;2022-10-22T06:17:38;19.80;;;14.70;;
20988;SDS011;10653;47.052;15.410;2022-10-22T06:20:04;18.53;;;15.20;;
20988;SDS011;10653;47.052;15.410;2022-10-22T06:22:30;17.40;;;14.43;;
20988;SDS011;10653;47.052;15.410;2022-10-22T06:24:56;19.47;;;13.80;;
20988;SDS011;10653;47.052;15.410;2022-10-22T06:27:22;15.47;;;13.20;;
20988;SDS011;10653;47.052;15.410;2022-10-22T06:29:48;18.77;;;14.27;;
20988;SDS011;10653;47.052;15.410;2022-10-22T06:32:14;19.77;;;14.53;;
20988;SDS011;10653;47.052;15.410;2022-10-22T06:34:40;17.33;;;12.97;;
20988;SDS011;10653;47.052;15.410;2022-10-22T06:37:08;24.03;;;15.20;;
20988;SDS011;10653;47.052;15.410;2022-10-22T06:39:34;17.63;;;14.00;;
20988;SDS011;10653;47.052;15.410;2022-10-22T06:42:00;16.33;;;12.20;;
20988;SDS011;10653;47.052;15.410;2022-10-22T06:44:26;15.00;;;12.97;;
20988;SDS011;10653;47.052;15.410;2022-10-22T06:46:52;14.17;;;12.37;;
20988;SDS011;10653;47.052;15.410;2022-10-22T06:49:18;18.53;;;14.40;;
20988;SDS011;10653;47.052;15.410;2022-10-22T06:51:47;17.23;;;14.20;;
20988;SDS011;10653;47.052;15.410;2022-10-22T06:54:14;20.73;;;15.53;;
20988;SDS011;10653;47.052;15.410;2022-10-22T06:56:40;16.50;;;14.33;;
20988;SDS011;10653;47.052;15.410;2022-10-22T06:59:06;15.30;;;13.70;;
20988;SDS011;10653;47.052;15.410;2022-10-22T07:01:32;19.20;;;14.93;;
20988;SDS011;10653;47.052;15.410;2022-10-22T07:03:59;16.80;;;13.40;;
20988;SDS011;10653;47.052;15.410;2022-10-22T07:06:26;15.90;;;14.20;;
20988;SDS011;10653;47.052;15.410;2022-10-22T07:08:52;18.20;;;14.27;;
20988;SDS011;10653;47.052;15.410;2022-10-22T07:11:22;15.77;;;13.63;;
20988;SDS011;10653;47.052;15.410;2022-10-22T07:13:48;19.30;;;14.13;;
20988;SDS011;10653;47.052;15.410;2022-10-22T07:16:14;17.07;;;14.50;;
20988;SDS011;10653;47.052;15.410;2022-10-22T07:18:41;15.13;;;13.53;;
20988;SDS011;10653;47.052;15.410;2022-10-22T07:21:07;17.00;;;13.97;;
20988;SDS011;10653;47.052;15.410;2022-10-22T07:23:33;19.57;;;14.80;;
20988;SDS011;10653;47.052;15.410;2022-10-22T07:26:00;22.80;;;16.40;;
20988;SDS011;10653;47.052;15.410;2022-10-22T07:28:26;25.30;;;17.80;;
20988;SDS011;10653;47.052;15.410;2022-10-22T07:30:52;18.07;;;16.10;;
20988;SDS011;10653;47.052;15.410;2022-10-22T07:33:19;19.33;;;16.37;;
20988;SDS011;10653;47.052;15.410;2022-10-22T07:35:45;20.50;;;15.17;;
20988;SDS011;10653;47.052;15.410;2022-10-22T07:38:11;19.07;;;15.50;;
20988;SDS011;10653;47.052;15.410;2022-10-22T07:40:37;17.73;;;15.00;;
20988;SDS011;10653;47.052;15.410;2022-10-22T07:43:03;19.90;;;15.00;;
20988;SDS011;10653;47.052;15.410;2022-10-22T07:45:29;18.23;;;15.30;;
20988;SDS011;10653;47.052;15.410;2022-10-22T07:47:55;19.10;;;14.73;;
20988;SDS011;10653;47.052;15.410;2022-10-22T07:50:21;17.80;;;14.87;;
20988;SDS011;10653;47.052;15.410;2022-10-22T07:52:47;17.40;;;15.40;;
20988;SDS011;10653;47.052;15.410;2022-10-22T07:55:13;26.83;;;14.77;;
20988;SDS011;10653;47.052;15.410;2022-10-22T07:57:39;18.23;;;13.93;;
20988;SDS011;10653;47.052;15.410;2022-10-22T08:00:06;16.90;;;13.63;;
20988;SDS011;10653;47.052;15.410;2022-10-22T08:02:32;17.83;;;14.90;;
20988;SDS011;10653;47.052;15.410;2022-10-22T08:04:58;19.97;;;14.70;;
20988;SDS011;10653;47.052;15.410;2022-10-22T08:07:24;25.00;;;15.27;;
20988;SDS011;10653;47.052;15.410;2022-10-22T08:09:51;16.00;;;14.50;;
20988;SDS011;10653;47.052;15.410;2022-10-22T08:12:17;16.33;;;14.50;;
20988;SDS011;10653;47.052;15.410;2022-10-22T08:14:43;24.97;;;14.93;;
20988;SDS011;10653;47.052;15.410;2022-10-22T08:17:09;20.30;;;14.80;;
20988;SDS011;10653;47.052;15.410;2022-10-22T08:19:35;16.70;;;14.67;;
20988;SDS011;10653;47.052;15.410;2022-10-22T08:22:01;20.20;;;15.33;;
20988;SDS011;10653;47.052;15.410;2022-10-22T08:24:28;18.93;;;14.63;;
20988;SDS011;10653;47.052;15.410;2022-10-22T08:26:54;21.93;;;16.07;;
20988;SDS011;10653;47.052;15.410;2022-10-22T08:29:23;19.50;;;13.87;;
20988;SDS011;10653;47.052;15.410;2022-10-22T08:31:51;17.03;;;13.40;;
20988;SDS011;10653;47.052;15.410;2022-10-22T08:34:17;18.07;;;13.97;;
20988;SDS011;10653;47.052;15.410;2022-10-22T08:36:44;15.63;;;14.00;;
20988;SDS011;10653;47.052;15.410;2022-10-22T08:39:10;16.23;;;14.53;;
20988;SDS011;10653;47.052;15.410;2022-10-22T08:49:18;16.20;;;11.90;;
20988;SDS011;10653;47.052;15.410;2022-10-22T08:51:45;13.00;;;11.07;;
20988;SDS011;10653;47.052;15.410;2022-10-22T08:56:37;17.53;;;13.03;;
20988;SDS011;10653;47.052;15.410;2022-10-22T08:59:11;14.33;;;11.60;;
20988;SDS011;10653;47.052;15.410;2022-10-22T09:01:44;24.53;;;13.23;;
20988;SDS011;10653;47.052;15.410;2022-10-22T09:06:50;19.50;;;13.77;;
20988;SDS011;10653;47.052;15.410;2022-10-22T09:09:16;18.20;;;13.93;;
20988;SDS011;10653;47.052;15.410;2022-10-22T09:11:44;19.20;;;12.97;;
20988;SDS011;10653;47.052;15.410;2022-10-22T09:14:15;26.23;;;13.03;;
20988;SDS011;10653;47.052;15.410;2022-10-22T09:22:06;16.63;;;13.20;;
20988;SDS011;10653;47.052;15.410;2022-10-22T09:24:37;16.90;;;13.10;;
20988;SDS011;10653;47.052;15.410;2022-10-22T09:27:13;16.37;;;12.30;;
20988;SDS011;10653;47.052;15.410;2022-10-22T09:29:40;17.00;;;13.20;;
20988;SDS011;10653;47.052;15.410;2022-10-22T09:32:06;22.13;;;14.63;;
20988;SDS011;10653;47.052;15.410;2022-10-22T09:34:32;17.93;;;13.60;;
20988;SDS011;10653;47.052;15.410;2022-10-22T09:36:59;18.73;;;14.17;;
20988;SDS011;10653;47.052;15.410;2022-10-22T09:39:47;16.17;;;12.10;;
20988;SDS011;10653;47.052;15.410;2022-10-22T09:42:15;16.53;;;12.67;;
20988;SDS011;10653;47.052;15.410;2022-10-22T09:44:42;14.63;;;12.00;;
20988;SDS011;10653;47.052;15.410;2022-10-22T09:50:03;18.23;;;11.43;;
20988;SDS011;10653;47.052;15.410;2022-10-22T09:52:30;16.20;;;11.80;;
20988;SDS011;10653;47.052;15.410;2022-10-22T09:55:00;13.00;;;11.27;;
20988;SDS011;10653;47.052;15.410;2022-10-22T09:57:27;14.70;;;12.30;;
20988;SDS011;10653;47.052;15.410;2022-10-22T09:59:54;19.87;;;14.90;;
20988;SDS011;10653;47.052;15.410;2022-10-22T10:02:26;24.70;;;19.37;;
20988;SDS011;10653;47.052;15.410;2022-10-22T10:04:54;21.37;;;17.03;;
20988;SDS011;10653;47.052;15.410;2022-10-22T10:07:21;16.13;;;14.17;;
20988;SDS011;10653;47.052;15.410;2022-10-22T10:09:48;17.10;;;14.63;;
20988;SDS011;10653;47.052;15.410;2022-10-22T10:25:22;16.13;;;12.97;;
20988;SDS011;10653;47.052;15.410;2022-10-22T10:30:36;19.43;;;14.27;;
20988;SDS011;10653;47.052;15.410;2022-10-22T10:40:57;22.60;;;14.83;;
20988;SDS011;10653;47.052;15.410;2022-10-22T10:43:40;18.90;;;15.20;;
20988;SDS011;10653;47.052;15.410;2022-10-22T10:48:44;20.63;;;14.17;;
20988;SDS011;10653;47.052;15.410;2022-10-22T10:56:41;20.83;;;15.73;;
20988;SDS011;10653;47.052;15.410;2022-10-22T10:59:16;21.10;;;15.90;;
20988;SDS011;10653;47.052;15.410;2022-10-22T11:06:38;18.40;;;15.87;;
20988;SDS011;10653;47.052;15.410;2022-10-22T11:09:06;16.67;;;14.90;;
20988;SDS011;10653;47.052;15.410;2022-10-22T11:11:38;16.77;;;15.07;;
20988;SDS011;10653;47.052;15.410;2022-10-22T11:14:26;17.60;;;15.87;;
20988;SDS011;10653;47.052;15.410;2022-10-22T11:17:00;19.73;;;17.00;;
20988;SDS011;10653;47.052;15.410;2022-10-22T11:20:11;19.37;;;17.27;;
20988;SDS011;10653;47.052;15.410;2022-10-22T11:22:34;19.40;;;15.03;;
20988;SDS011;10653;47.052;15.410;2022-10-22T11:27:39;25.27;;;18.50;;
20988;SDS011;10653;47.052;15.410;2022-10-22T11:32:35;22.37;;;16.50;;
20988;SDS011;10653;47.052;15.410;2022-10-22T11:35:03;20.63;;;17.17;;
20988;SDS011;10653;47.052;15.410;2022-10-22T11:37:31;23.87;;;17.20;;
20988;SDS011;10653;47.052;15.410;2022-10-22T11:42:35;18.23;;;16.13;;
20988;SDS011;10653;47.052;15.410;2022-10-22T11:45:06;19.77;;;15.00;;
20988;SDS011;10653;47.052;15.410;2022-10-22T11:53:02;21.70;;;18.70;;
20988;SDS011;10653;47.052;15.410;2022-10-22T11:55:33;20.30;;;17.07;;
20988;SDS011;10653;47.052;15.410;2022-10-22T12:03:41;18.53;;;16.03;;
20988;SDS011;10653;47.052;15.410;2022-10-22T12:11:21;20.30;;;15.00;;
20988;SDS011;10653;47.052;15.410;2022-10-22T12:16:28;18.17;;;14.57;;
20988;SDS011;10653;47.052;15.410;2022-10-22T12:19:06;18.70;;;16.00;;
20988;SDS011;10653;47.052;15.410;2022-10-22T12:21:38;17.87;;;15.97;;
20988;SDS011;10653;47.052;15.410;2022-10-22T12:24:05;23.90;;;18.20;;
20988;SDS011;10653;47.052;15.410;2022-10-22T12:26:31;26.63;;;18.30;;
20988;SDS011;10653;47.052;15.410;2022-10-22T12:29:02;23.53;;;18.03;;
20988;SDS011;10653;47.052;15.410;2022-10-22T12:31:35;21.53;;;16.00;;
20988;SDS011;10653;47.052;15.410;2022-10-22T12:34:02;26.90;;;17.83;;
20988;SDS011;10653;47.052;15.410;2022-10-22T12:36:28;21.47;;;17.30;;
20988;SDS011;10653;47.052;15.410;2022-10-22T12:38:58;18.77;;;16.77;;
20988;SDS011;10653;47.052;15.410;2022-10-22T12:41:31;22.50;;;20.20;;
20988;SDS011;10653;47.052;15.410;2022-10-22T12:43:58;24.73;;;16.60;;
20988;SDS011;10653;47.052;15.410;2022-10-22T12:46:24;21.60;;;17.27;;
20988;SDS011;10653;47.052;15.410;2022-10-22T12:48:51;27.70;;;16.70;;
20988;SDS011;10653;47.052;15.410;2022-10-22T12:51:20;18.97;;;15.77;;
20988;SDS011;10653;47.052;15.410;2022-10-22T12:53:47;21.93;;;16.40;;
20988;SDS011;10653;47.052;15.410;2022-10-22T12:56:15;18.57;;;15.57;;
20988;SDS011;10653;47.052;15.410;2022-10-22T12:58:44;21.03;;;15.70;;
20988;SDS011;10653;47.052;15.410;2022-10-22T13:01:11;16.20;;;14.50;;
20988;SDS011;10653;47.052;15.410;2022-10-22T13:03:41;21.30;;;15.30;;
20988;SDS011;10653;47.052;15.410;2022-10-22T13:08:37;16.70;;;14.77;;
20988;SDS011;10653;47.052;15.410;2022-10-22T13:11:08;24.10;;;16.60;;
20988;SDS011;10653;47.052;15.410;2022-10-22T13:13:43;17.70;;;15.03;;
20988;SDS011;10653;47.052;15.410;2022-10-22T13:16:13;18.70;;;15.93;;
20988;SDS011;10653;47.052;15.410;2022-10-22T13:18:39;23.60;;;16.60;;
20988;SDS011;10653;47.052;15.410;2022-10-22T13:21:19;16.87;;;15.13;;
20988;SDS011;10653;47.052;15.410;2022-10-22T13:23:50;17.67;;;14.10;;
20988;SDS011;10653;47.052;15.410;2022-10-22T13:26:16;18.90;;;15.23;;
20988;SDS011;10653;47.052;15.410;2022-10-22T13:28:48;16.50;;;14.67;;
20988;SDS011;10653;47.052;15.410;2022-10-22T13:31:28;19.67;;;14.80;;
20988;SDS011;10653;47.052;15.410;2022-10-22T13:34:01;17.70;;;13.80;;
20988;SDS011;10653;47.052;15.410;2022-10-22T13:36:30;20.27;;;14.53;;
20988;SDS011;10653;47.052;15.410;2022-10-22T13:38:56;17.73;;;14.80;;
20988;SDS011;10653;47.052;15.410;2022-10-22T13:41:26;23.27;;;16.07;;
20988;SDS011;10653;47.052;15.410;2022-10-22T13:43:53;17.53;;;15.67;;
20988;SDS011;10653;47.052;15.410;2022-10-22T13:46:19;21.60;;;16.73;;
20988;SDS011;10653;47.052;15.410;2022-10-22T13:48:46;23.13;;;16.70;;
20988;SDS011;10653;47.052;15.410;2022-10-22T13:51:17;19.20;;;15.60;;
20988;SDS011;10653;47.052;15.410;2022-10-22T13:53:46;23.80;;;16.50;;
20988;SDS011;10653;47.052;15.410;2022-10-22T13:56:16;19.80;;;14.53;;
20988;SDS011;10653;47.052;15.410;2022-10-22T13:58:43;22.67;;;16.70;;
20988;SDS011;10653;47.052;15.410;2022-10-22T14:01:17;17.90;;;15.00;;
20988;SDS011;10653;47.052;15.410;2022-10-22T14:03:44;19.47;;;15.43;;
20988;SDS011;10653;47.052;15.410;2022-10-22T14:06:14;17.70;;;15.70;;
20988;SDS011;10653;47.052;15.410;2022-10-22T14:08:41;18.47;;;15.77;;
20988;SDS011;10653;47.052;15.410;2022-10-22T14:11:09;19.63;;;16.80;;
20988;SDS011;10653;47.052;15.410;2022-10-22T14:13:35;27.13;;;23.10;;
20988;SDS011;10653;47.052;15.410;2022-10-22T14:16:01;26.83;;;20.67;;
20988;SDS011;10653;47.052;15.410;2022-10-22T14:18:28;19.50;;;17.40;;
20988;SDS011;10653;47.052;15.410;2022-10-22T14:20:57;25.60;;;18.70;;
20988;SDS011;10653;47.052;15.410;2022-10-22T14:23:24;27.80;;;19.83;;
20988;SDS011;10653;47.052;15.410;2022-10-22T14:25:51;26.47;;;19.07;;
20988;SDS011;10653;47.052;15.410;2022-10-22T14:28:17;22.47;;;20.17;;
20988;SDS011;10653;47.052;15.410;2022-10-22T14:30:44;21.00;;;18.70;;
20988;SDS011;10653;47.052;15.410;2022-10-22T14:35:36;23.63;;;19.70;;
20988;SDS011;10653;47.052;15.410;2022-10-22T14:38:02;23.27;;;18.97;;
20988;SDS011;10653;47.052;15.410;2022-10-22T14:40:28;22.83;;;20.43;;
20988;SDS011;10653;47.052;15.410;2022-10-22T14:42:54;23.40;;;21.10;;
20988;SDS011;10653;47.052;15.410;2022-10-22T14:45:22;25.70;;;19.83;;
20988;SDS011;10653;47.052;15.410;2022-10-22T14:47:48;21.47;;;18.90;;
20988;SDS011;10653;47.052;15.410;2022-10-22T14:50:15;28.40;;;23.40;;
20988;SDS011;10653;47.052;15.410;2022-10-22T14:52:41;27.87;;;24.67;;
20988;SDS011;10653;47.052;15.410;2022-10-22T14:55:08;25.43;;;22.47;;
20988;SDS011;10653;47.052;15.410;2022-10-22T14:57:34;28.37;;;23.43;;
20988;SDS011;10653;47.052;15.410;2022-10-22T15:00:00;26.13;;;23.20;;
20988;SDS011;10653;47.052;15.410;2022-10-22T15:02:26;26.97;;;22.40;;
20988;SDS011;10653;47.052;15.410;2022-10-22T15:04:52;27.13;;;23.00;;
20988;SDS011;10653;47.052;15.410;2022-10-22T15:07:18;26.10;;;23.30;;
20988;SDS011;10653;47.052;15.410;2022-10-22T15:09:45;26.80;;;23.70;;
20988;SDS011;10653;47.052;15.410;2022-10-22T15:12:11;28.30;;;24.50;;
20988;SDS011;10653;47.052;15.410;2022-10-22T15:14:37;30.40;;;26.43;;
20988;SDS011;10653;47.052;15.410;2022-10-22T15:17:03;33.23;;;25.67;;
20988;SDS011;10653;47.052;15.410;2022-10-22T15:19:29;33.20;;;24.67;;
20988;SDS011;10653;47.052;15.410;2022-10-22T15:21:56;26.40;;;22.80;;
20988;SDS011;10653;47.052;15.410;2022-10-22T15:24:22;28.37;;;25.20;;
20988;SDS011;10653;47.052;15.410;2022-10-22T15:26:48;26.30;;;23.43;;
20988;SDS011;10653;47.052;15.410;2022-10-22T15:29:16;35.40;;;27.20;;
20988;SDS011;10653;47.052;15.410;2022-10-22T15:34:08;30.53;;;22.70;;
20988;SDS011;10653;47.052;15.410;2022-10-22T15:36:34;27.13;;;22.17;;
20988;SDS011;10653;47.052;15.410;2022-10-22T15:39:04;25.77;;;19.93;;
20988;SDS011;10653;47.052;15.410;2022-10-22T15:41:30;24.27;;;19.37;;
20988;SDS011;10653;47.052;15.410;2022-10-22T15:43:57;17.90;;;16.00;;
20988;SDS011;10653;47.052;15.410;2022-10-22T15:46:23;17.00;;;15.27;;
20988;SDS011;10653;47.052;15.410;2022-10-22T15:48:51;15.00;;;13.40;;
20988;SDS011;10653;47.052;15.410;2022-10-22T15:51:18;16.47;;;14.17;;
20988;SDS011;10653;47.052;15.410;2022-10-22T15:53:51;20.03;;;17.03;;
20988;SDS011;10653;47.052;15.410;2022-10-22T15:56:17;20.00;;;17.90;;
20988;SDS011;10653;47.052;15.410;2022-10-22T15:58:43;22.07;;;19.70;;
20988;SDS011;10653;47.052;15.410;2022-10-22T16:01:10;21.67;;;18.97;;
20988;SDS011;10653;47.052;15.410;2022-10-22T16:03:37;20.87;;;18.67;;
20988;SDS011;10653;47.052;15.410;2022-10-22T16:06:03;21.37;;;18.73;;
20988;SDS011;10653;47.052;15.410;2022-10-22T16:08:29;19.10;;;17.07;;